sensor_id;sensor_type;location;lat;lon;timestamp;P1;durP1;ratioP1;P2;durP2;ratioP2
211;SDS011;16228;48.800;9.002;2023-03-01T00:01:14;26.97;;;20.10;;
211;SDS011;16228;48.800;9.002;2023-03-01T00:03:42;25.67;;;20.33;;
211;SDS011;16228;48.800;9.002;2023-03-01T00:06:09;24.87;;;19.70;;
211;SDS011;16228;48.800;9.002;2023-03-01T00:08:36;22.13;;;19.37;;
211;SDS011;16228;48.800;9.002;2023-03-01T00:11:05;26.07;;;20.07;;
211;SDS011;16228;48.800;9.002;2023-03-01T00:13:34;24.40;;;20.80;;
211;SDS011;16228;48.800;9.002;2023-03-01T00:16:03;26.07;;;20.27;;
211;SDS011;16228;48.800;9.002;2023-03-01T00:18:31;26.07;;;20.20;;
211;SDS011;16228;48.800;9.002;2023-03-01T00:20:58;26.20;;;20.23;;
211;SDS011;16228;48.800;9.002;2023-03-01T00:23:25;28.00;;;19.40;;
211;SDS011;16228;48.800;9.002;2023-03-01T00:25:53;28.63;;;21.83;;
211;SDS011;16228;48.800;9.002;2023-03-01T00:28:21;27.83;;;20.87;;
211;SDS011;16228;48.800;9.002;2023-03-01T00:30:49;30.17;;;23.30;;
211;SDS011;16228;48.800;9.002;2023-03-01T00:33:17;28.37;;;21.93;;
211;SDS011;16228;48.800;9.002;2023-03-01T00:35:44;29.77;;;22.53;;
211;SDS011;16228;48.800;9.002;2023-03-01T00:38:11;27.93;;;21.23;;
211;SDS011;16228;48.800;9.002;2023-03-01T00:40:39;25.37;;;20.40;;
211;SDS011;16228;48.800;9.002;2023-03-01T00:43:06;27.63;;;21.30;;
211;SDS011;16228;48.800;9.002;2023-03-01T00:45:33;27.70;;;21.97;;
211;SDS011;16228;48.800;9.002;2023-03-01T00:48:01;31.20;;;23.70;;
211;SDS011;16228;48.800;9.002;2023-03-01T00:50:30;29.60;;;23.03;;
211;SDS011;16228;48.800;9.002;2023-03-01T00:52:57;29.83;;;22.20;;
211;SDS011;16228;48.800;9.002;2023-03-01T00:55:24;33.93;;;24.83;;
211;SDS011;16228;48.800;9.002;2023-03-01T00:57:52;38.50;;;28.43;;
211;SDS011;16228;48.800;9.002;2023-03-01T01:00:19;42.53;;;27.80;;
211;SDS011;16228;48.800;9.002;2023-03-01T01:02:47;35.60;;;25.70;;
211;SDS011;16228;48.800;9.002;2023-03-01T01:05:15;37.47;;;26.73;;
211;SDS011;16228;48.800;9.002;2023-03-01T01:07:46;39.10;;;26.17;;
211;SDS011;16228;48.800;9.002;2023-03-01T01:10:14;32.70;;;24.70;;
211;SDS011;16228;48.800;9.002;2023-03-01T01:12:42;33.83;;;25.13;;
211;SDS011;16228;48.800;9.002;2023-03-01T01:15:10;31.57;;;23.70;;
211;SDS011;16228;48.800;9.002;2023-03-01T01:17:39;30.33;;;22.87;;
211;SDS011;16228;48.800;9.002;2023-03-01T01:20:07;32.03;;;23.53;;
211;SDS011;16228;48.800;9.002;2023-03-01T01:22:36;32.27;;;23.07;;
211;SDS011;16228;48.800;9.002;2023-03-01T01:25:04;28.37;;;22.23;;
211;SDS011;16228;48.800;9.002;2023-03-01T01:27:31;26.17;;;21.47;;
211;SDS011;16228;48.800;9.002;2023-03-01T01:29:59;26.43;;;20.37;;
211;SDS011;16228;48.800;9.002;2023-03-01T01:32:26;25.90;;;20.67;;
211;SDS011;16228;48.800;9.002;2023-03-01T01:34:53;23.87;;;19.73;;
211;SDS011;16228;48.800;9.002;2023-03-01T01:37:20;25.93;;;20.53;;
211;SDS011;16228;48.800;9.002;2023-03-01T01:39:49;24.97;;;20.20;;
211;SDS011;16228;48.800;9.002;2023-03-01T01:42:17;30.17;;;21.67;;
211;SDS011;16228;48.800;9.002;2023-03-01T01:44:45;26.93;;;20.50;;
211;SDS011;16228;48.800;9.002;2023-03-01T01:47:14;25.73;;;21.50;;
211;SDS011;16228;48.800;9.002;2023-03-01T01:49:44;26.67;;;21.07;;
211;SDS011;16228;48.800;9.002;2023-03-01T01:52:16;26.30;;;21.53;;
211;SDS011;16228;48.800;9.002;2023-03-01T01:54:47;24.57;;;19.40;;
211;SDS011;16228;48.800;9.002;2023-03-01T01:57:22;23.70;;;19.57;;
211;SDS011;16228;48.800;9.002;2023-03-01T01:59:53;28.17;;;20.47;;
211;SDS011;16228;48.800;9.002;2023-03-01T02:02:25;27.63;;;19.83;;
211;SDS011;16228;48.800;9.002;2023-03-01T02:04:53;22.73;;;19.53;;
211;SDS011;16228;48.800;9.002;2023-03-01T02:07:28;26.60;;;21.00;;
211;SDS011;16228;48.800;9.002;2023-03-01T02:09:58;23.57;;;18.87;;
211;SDS011;16228;48.800;9.002;2023-03-01T02:12:26;23.17;;;18.80;;
211;SDS011;16228;48.800;9.002;2023-03-01T02:14:53;24.07;;;20.73;;
211;SDS011;16228;48.800;9.002;2023-03-01T02:17:20;29.67;;;21.30;;
211;SDS011;16228;48.800;9.002;2023-03-01T02:19:51;22.07;;;19.50;;
211;SDS011;16228;48.800;9.002;2023-03-01T02:22:27;25.67;;;21.50;;
211;SDS011;16228;48.800;9.002;2023-03-01T02:25:03;29.60;;;22.03;;
211;SDS011;16228;48.800;9.002;2023-03-01T02:27:38;27.57;;;21.67;;
211;SDS011;16228;48.800;9.002;2023-03-01T02:30:13;26.93;;;21.10;;
211;SDS011;16228;48.800;9.002;2023-03-01T02:32:41;23.03;;;19.03;;
211;SDS011;16228;48.800;9.002;2023-03-01T02:35:08;26.40;;;20.77;;
211;SDS011;16228;48.800;9.002;2023-03-01T02:37:37;25.07;;;19.77;;
211;SDS011;16228;48.800;9.002;2023-03-01T02:40:07;24.63;;;19.63;;
211;SDS011;16228;48.800;9.002;2023-03-01T02:42:40;24.07;;;19.80;;
211;SDS011;16228;48.800;9.002;2023-03-01T02:45:14;21.07;;;17.47;;
211;SDS011;16228;48.800;9.002;2023-03-01T02:47:41;30.23;;;21.10;;
211;SDS011;16228;48.800;9.002;2023-03-01T02:50:18;23.77;;;18.80;;
211;SDS011;16228;48.800;9.002;2023-03-01T02:52:53;21.83;;;18.10;;
211;SDS011;16228;48.800;9.002;2023-03-01T02:55:24;24.27;;;19.47;;
211;SDS011;16228;48.800;9.002;2023-03-01T02:57:52;24.00;;;19.37;;
211;SDS011;16228;48.800;9.002;2023-03-01T03:00:23;22.73;;;18.73;;
211;SDS011;16228;48.800;9.002;2023-03-01T03:02:54;24.20;;;18.90;;
211;SDS011;16228;48.800;9.002;2023-03-01T03:05:23;26.10;;;20.30;;
211;SDS011;16228;48.800;9.002;2023-03-01T03:07:52;24.27;;;19.60;;
211;SDS011;16228;48.800;9.002;2023-03-01T03:10:20;24.37;;;18.50;;
211;SDS011;16228;48.800;9.002;2023-03-01T03:12:49;27.37;;;20.03;;
211;SDS011;16228;48.800;9.002;2023-03-01T03:15:17;22.30;;;18.87;;
211;SDS011;16228;48.800;9.002;2023-03-01T03:17:47;21.67;;;18.97;;
211;SDS011;16228;48.800;9.002;2023-03-01T03:20:16;24.60;;;18.87;;
211;SDS011;16228;48.800;9.002;2023-03-01T03:22:45;21.97;;;19.17;;
211;SDS011;16228;48.800;9.002;2023-03-01T03:25:13;23.53;;;18.27;;
211;SDS011;16228;48.800;9.002;2023-03-01T03:27:41;20.97;;;18.10;;
211;SDS011;16228;48.800;9.002;2023-03-01T03:30:11;22.43;;;18.77;;
211;SDS011;16228;48.800;9.002;2023-03-01T03:32:39;23.00;;;18.07;;
211;SDS011;16228;48.800;9.002;2023-03-01T03:35:09;22.97;;;17.87;;
211;SDS011;16228;48.800;9.002;2023-03-01T03:37:36;24.87;;;18.80;;
211;SDS011;16228;48.800;9.002;2023-03-01T03:40:21;23.40;;;18.67;;
211;SDS011;16228;48.800;9.002;2023-03-01T03:42:49;27.23;;;19.00;;
211;SDS011;16228;48.800;9.002;2023-03-01T03:45:16;21.63;;;19.00;;
211;SDS011;16228;48.800;9.002;2023-03-01T03:47:46;25.03;;;20.03;;
211;SDS011;16228;48.800;9.002;2023-03-01T03:50:15;20.47;;;17.77;;
211;SDS011;16228;48.800;9.002;2023-03-01T03:52:44;22.50;;;18.57;;
211;SDS011;16228;48.800;9.002;2023-03-01T03:55:12;23.97;;;19.33;;
211;SDS011;16228;48.800;9.002;2023-03-01T03:57:45;24.93;;;19.37;;
211;SDS011;16228;48.800;9.002;2023-03-01T04:00:17;23.37;;;19.60;;
211;SDS011;16228;48.800;9.002;2023-03-01T04:02:46;24.53;;;20.40;;
211;SDS011;16228;48.800;9.002;2023-03-01T04:05:15;21.03;;;18.70;;
211;SDS011;16228;48.800;9.002;2023-03-01T04:07:44;24.43;;;19.20;;
211;SDS011;16228;48.800;9.002;2023-03-01T04:10:12;21.47;;;18.03;;
211;SDS011;16228;48.800;9.002;2023-03-01T04:12:42;22.77;;;19.07;;
211;SDS011;16228;48.800;9.002;2023-03-01T04:15:11;22.33;;;18.47;;
211;SDS011;16228;48.800;9.002;2023-03-01T04:17:42;22.80;;;19.30;;
211;SDS011;16228;48.800;9.002;2023-03-01T04:20:10;20.37;;;17.87;;
211;SDS011;16228;48.800;9.002;2023-03-01T04:22:44;21.60;;;19.30;;
211;SDS011;16228;48.800;9.002;2023-03-01T04:25:12;25.30;;;20.77;;
211;SDS011;16228;48.800;9.002;2023-03-01T04:27:40;22.43;;;19.73;;
211;SDS011;16228;48.800;9.002;2023-03-01T04:30:08;26.53;;;21.00;;
211;SDS011;16228;48.800;9.002;2023-03-01T04:32:36;20.90;;;18.60;;
211;SDS011;16228;48.800;9.002;2023-03-01T04:35:03;22.90;;;19.27;;
211;SDS011;16228;48.800;9.002;2023-03-01T04:37:31;26.40;;;21.37;;
211;SDS011;16228;48.800;9.002;2023-03-01T04:39:59;24.60;;;19.13;;
211;SDS011;16228;48.800;9.002;2023-03-01T04:42:33;26.83;;;21.27;;
211;SDS011;16228;48.800;9.002;2023-03-01T04:45:00;24.30;;;20.00;;
211;SDS011;16228;48.800;9.002;2023-03-01T04:47:27;30.07;;;20.03;;
211;SDS011;16228;48.800;9.002;2023-03-01T04:49:54;26.73;;;20.97;;
211;SDS011;16228;48.800;9.002;2023-03-01T04:52:21;26.80;;;22.97;;
211;SDS011;16228;48.800;9.002;2023-03-01T04:54:49;31.57;;;21.10;;
211;SDS011;16228;48.800;9.002;2023-03-01T04:57:17;26.23;;;21.27;;
211;SDS011;16228;48.800;9.002;2023-03-01T04:59:45;23.27;;;18.87;;
211;SDS011;16228;48.800;9.002;2023-03-01T05:02:12;25.43;;;20.77;;
211;SDS011;16228;48.800;9.002;2023-03-01T05:04:39;23.53;;;18.87;;
211;SDS011;16228;48.800;9.002;2023-03-01T05:07:06;25.50;;;19.53;;
211;SDS011;16228;48.800;9.002;2023-03-01T05:09:34;26.50;;;20.07;;
211;SDS011;16228;48.800;9.002;2023-03-01T05:12:01;27.13;;;19.87;;
211;SDS011;16228;48.800;9.002;2023-03-01T05:14:30;25.50;;;20.20;;
211;SDS011;16228;48.800;9.002;2023-03-01T05:17:00;24.30;;;20.00;;
211;SDS011;16228;48.800;9.002;2023-03-01T05:19:29;24.73;;;19.77;;
211;SDS011;16228;48.800;9.002;2023-03-01T05:21:56;25.73;;;20.27;;
211;SDS011;16228;48.800;9.002;2023-03-01T05:24:30;28.50;;;20.43;;
211;SDS011;16228;48.800;9.002;2023-03-01T05:26:59;24.70;;;19.77;;
211;SDS011;16228;48.800;9.002;2023-03-01T05:29:27;25.03;;;19.47;;
211;SDS011;16228;48.800;9.002;2023-03-01T05:31:57;23.53;;;20.03;;
211;SDS011;16228;48.800;9.002;2023-03-01T05:34:26;24.20;;;19.67;;
211;SDS011;16228;48.800;9.002;2023-03-01T05:36:55;30.30;;;22.10;;
211;SDS011;16228;48.800;9.002;2023-03-01T05:39:23;26.63;;;20.37;;
211;SDS011;16228;48.800;9.002;2023-03-01T05:41:52;26.70;;;21.07;;
211;SDS011;16228;48.800;9.002;2023-03-01T05:44:20;28.33;;;21.30;;
211;SDS011;16228;48.800;9.002;2023-03-01T05:46:47;27.53;;;21.43;;
211;SDS011;16228;48.800;9.002;2023-03-01T05:49:16;28.73;;;19.67;;
211;SDS011;16228;48.800;9.002;2023-03-01T05:51:45;24.40;;;20.60;;
211;SDS011;16228;48.800;9.002;2023-03-01T05:54:14;25.60;;;21.43;;
211;SDS011;16228;48.800;9.002;2023-03-01T05:56:42;26.73;;;20.07;;
211;SDS011;16228;48.800;9.002;2023-03-01T05:59:09;25.47;;;20.63;;
211;SDS011;16228;48.800;9.002;2023-03-01T06:01:36;24.60;;;21.67;;
211;SDS011;16228;48.800;9.002;2023-03-01T06:04:04;27.47;;;20.97;;
211;SDS011;16228;48.800;9.002;2023-03-01T06:06:34;26.77;;;21.17;;
211;SDS011;16228;48.800;9.002;2023-03-01T06:09:03;27.97;;;21.87;;
211;SDS011;16228;48.800;9.002;2023-03-01T06:11:30;26.27;;;21.63;;
211;SDS011;16228;48.800;9.002;2023-03-01T06:13:57;26.57;;;19.53;;
211;SDS011;16228;48.800;9.002;2023-03-01T06:16:24;27.57;;;21.33;;
211;SDS011;16228;48.800;9.002;2023-03-01T06:18:51;27.10;;;19.93;;
211;SDS011;16228;48.800;9.002;2023-03-01T06:21:19;26.03;;;20.27;;
211;SDS011;16228;48.800;9.002;2023-03-01T06:23:47;24.30;;;18.67;;
211;SDS011;16228;48.800;9.002;2023-03-01T06:26:14;26.43;;;21.77;;
211;SDS011;16228;48.800;9.002;2023-03-01T06:28:42;29.63;;;20.73;;
211;SDS011;16228;48.800;9.002;2023-03-01T06:31:11;26.70;;;20.63;;
211;SDS011;16228;48.800;9.002;2023-03-01T06:33:38;26.67;;;20.73;;
211;SDS011;16228;48.800;9.002;2023-03-01T06:36:05;30.73;;;22.83;;
211;SDS011;16228;48.800;9.002;2023-03-01T06:38:34;26.90;;;20.90;;
211;SDS011;16228;48.800;9.002;2023-03-01T06:41:03;24.13;;;20.30;;
211;SDS011;16228;48.800;9.002;2023-03-01T06:43:30;28.63;;;20.93;;
211;SDS011;16228;48.800;9.002;2023-03-01T06:45:57;26.20;;;20.33;;
211;SDS011;16228;48.800;9.002;2023-03-01T06:48:24;25.57;;;19.23;;
211;SDS011;16228;48.800;9.002;2023-03-01T06:50:52;25.60;;;19.77;;
211;SDS011;16228;48.800;9.002;2023-03-01T06:53:19;22.87;;;19.43;;
211;SDS011;16228;48.800;9.002;2023-03-01T06:55:46;26.97;;;21.73;;
211;SDS011;16228;48.800;9.002;2023-03-01T06:58:14;25.57;;;19.30;;
211;SDS011;16228;48.800;9.002;2023-03-01T07:00:42;26.17;;;18.80;;
211;SDS011;16228;48.800;9.002;2023-03-01T07:03:09;27.23;;;18.17;;
211;SDS011;16228;48.800;9.002;2023-03-01T07:05:36;26.63;;;19.50;;
211;SDS011;16228;48.800;9.002;2023-03-01T07:08:03;25.63;;;19.07;;
211;SDS011;16228;48.800;9.002;2023-03-01T07:10:31;28.00;;;19.83;;
211;SDS011;16228;48.800;9.002;2023-03-01T07:12:58;26.87;;;19.83;;
211;SDS011;16228;48.800;9.002;2023-03-01T07:15:28;25.43;;;19.07;;
211;SDS011;16228;48.800;9.002;2023-03-01T07:17:55;23.80;;;18.80;;
211;SDS011;16228;48.800;9.002;2023-03-01T07:20:23;22.50;;;17.37;;
211;SDS011;16228;48.800;9.002;2023-03-01T07:22:50;22.90;;;17.53;;
211;SDS011;16228;48.800;9.002;2023-03-01T07:25:17;23.57;;;17.33;;
211;SDS011;16228;48.800;9.002;2023-03-01T07:27:48;24.50;;;18.30;;
211;SDS011;16228;48.800;9.002;2023-03-01T07:30:17;25.10;;;17.87;;
211;SDS011;16228;48.800;9.002;2023-03-01T07:32:46;24.57;;;17.70;;
211;SDS011;16228;48.800;9.002;2023-03-01T07:35:13;23.90;;;18.23;;
211;SDS011;16228;48.800;9.002;2023-03-01T07:37:41;26.47;;;18.60;;
211;SDS011;16228;48.800;9.002;2023-03-01T07:40:08;23.47;;;17.17;;
211;SDS011;16228;48.800;9.002;2023-03-01T07:42:37;22.77;;;18.43;;
211;SDS011;16228;48.800;9.002;2023-03-01T07:45:05;25.70;;;19.00;;
211;SDS011;16228;48.800;9.002;2023-03-01T07:47:33;25.90;;;18.37;;
211;SDS011;16228;48.800;9.002;2023-03-01T07:50:01;23.43;;;17.77;;
211;SDS011;16228;48.800;9.002;2023-03-01T07:52:29;22.33;;;17.63;;
211;SDS011;16228;48.800;9.002;2023-03-01T07:54:57;23.47;;;16.97;;
211;SDS011;16228;48.800;9.002;2023-03-01T07:57:24;22.07;;;18.07;;
211;SDS011;16228;48.800;9.002;2023-03-01T07:59:51;23.73;;;16.63;;
211;SDS011;16228;48.800;9.002;2023-03-01T08:02:18;23.37;;;17.40;;
211;SDS011;16228;48.800;9.002;2023-03-01T08:04:46;21.67;;;18.47;;
211;SDS011;16228;48.800;9.002;2023-03-01T08:07:30;23.27;;;18.80;;
211;SDS011;16228;48.800;9.002;2023-03-01T08:10:11;23.90;;;18.07;;
211;SDS011;16228;48.800;9.002;2023-03-01T08:12:43;25.67;;;18.93;;
211;SDS011;16228;48.800;9.002;2023-03-01T08:15:10;24.43;;;18.43;;
211;SDS011;16228;48.800;9.002;2023-03-01T08:17:38;24.50;;;18.80;;
211;SDS011;16228;48.800;9.002;2023-03-01T08:20:05;23.43;;;17.53;;
211;SDS011;16228;48.800;9.002;2023-03-01T08:22:34;25.27;;;18.10;;
211;SDS011;16228;48.800;9.002;2023-03-01T08:25:01;24.30;;;18.23;;
211;SDS011;16228;48.800;9.002;2023-03-01T08:27:29;24.63;;;18.10;;
211;SDS011;16228;48.800;9.002;2023-03-01T08:29:56;23.27;;;17.33;;
211;SDS011;16228;48.800;9.002;2023-03-01T08:32:23;32.13;;;19.47;;
211;SDS011;16228;48.800;9.002;2023-03-01T08:34:50;28.80;;;19.17;;
211;SDS011;16228;48.800;9.002;2023-03-01T08:37:17;22.87;;;17.17;;
211;SDS011;16228;48.800;9.002;2023-03-01T08:39:46;25.47;;;18.90;;
211;SDS011;16228;48.800;9.002;2023-03-01T08:42:14;22.80;;;17.03;;
211;SDS011;16228;48.800;9.002;2023-03-01T08:44:41;19.00;;;15.30;;
211;SDS011;16228;48.800;9.002;2023-03-01T08:47:08;20.77;;;14.87;;
211;SDS011;16228;48.800;9.002;2023-03-01T08:49:35;20.80;;;16.23;;
211;SDS011;16228;48.800;9.002;2023-03-01T08:52:02;21.37;;;16.00;;
211;SDS011;16228;48.800;9.002;2023-03-01T08:54:29;19.10;;;15.33;;
211;SDS011;16228;48.800;9.002;2023-03-01T08:56:58;21.20;;;16.23;;
211;SDS011;16228;48.800;9.002;2023-03-01T08:59:28;17.13;;;15.13;;
211;SDS011;16228;48.800;9.002;2023-03-01T09:01:55;18.10;;;15.03;;
211;SDS011;16228;48.800;9.002;2023-03-01T09:04:23;18.53;;;15.53;;
211;SDS011;16228;48.800;9.002;2023-03-01T09:06:50;21.27;;;15.33;;
211;SDS011;16228;48.800;9.002;2023-03-01T09:09:17;21.40;;;15.90;;
211;SDS011;16228;48.800;9.002;2023-03-01T09:11:45;22.83;;;16.37;;
211;SDS011;16228;48.800;9.002;2023-03-01T09:14:14;22.33;;;16.40;;
211;SDS011;16228;48.800;9.002;2023-03-01T09:16:41;22.33;;;16.20;;
211;SDS011;16228;48.800;9.002;2023-03-01T09:19:08;19.97;;;15.77;;
211;SDS011;16228;48.800;9.002;2023-03-01T09:21:36;20.77;;;16.47;;
211;SDS011;16228;48.800;9.002;2023-03-01T09:24:04;19.83;;;14.90;;
211;SDS011;16228;48.800;9.002;2023-03-01T09:26:32;21.27;;;15.70;;
211;SDS011;16228;48.800;9.002;2023-03-01T09:28:59;19.90;;;15.23;;
211;SDS011;16228;48.800;9.002;2023-03-01T09:31:28;18.73;;;15.73;;
211;SDS011;16228;48.800;9.002;2023-03-01T09:33:55;17.00;;;14.97;;
211;SDS011;16228;48.800;9.002;2023-03-01T09:36:23;18.97;;;15.10;;
211;SDS011;16228;48.800;9.002;2023-03-01T09:38:51;17.30;;;14.90;;
211;SDS011;16228;48.800;9.002;2023-03-01T09:41:26;20.27;;;14.70;;
211;SDS011;16228;48.800;9.002;2023-03-01T09:44:07;19.47;;;15.17;;
211;SDS011;16228;48.800;9.002;2023-03-01T09:46:43;16.90;;;14.57;;
211;SDS011;16228;48.800;9.002;2023-03-01T09:49:13;17.30;;;15.03;;
211;SDS011;16228;48.800;9.002;2023-03-01T09:51:43;15.77;;;14.07;;
211;SDS011;16228;48.800;9.002;2023-03-01T09:54:20;17.67;;;15.77;;
211;SDS011;16228;48.800;9.002;2023-03-01T09:56:51;19.27;;;15.80;;
211;SDS011;16228;48.800;9.002;2023-03-01T09:59:26;19.07;;;16.00;;
211;SDS011;16228;48.800;9.002;2023-03-01T10:02:03;18.50;;;14.83;;
211;SDS011;16228;48.800;9.002;2023-03-01T10:04:43;19.50;;;14.97;;
211;SDS011;16228;48.800;9.002;2023-03-01T10:07:17;18.40;;;15.40;;
211;SDS011;16228;48.800;9.002;2023-03-01T10:09:52;17.80;;;15.43;;
211;SDS011;16228;48.800;9.002;2023-03-01T10:12:20;20.50;;;16.00;;
211;SDS011;16228;48.800;9.002;2023-03-01T10:14:52;18.40;;;15.43;;
211;SDS011;16228;48.800;9.002;2023-03-01T10:17:27;19.43;;;15.53;;
211;SDS011;16228;48.800;9.002;2023-03-01T10:20:10;19.20;;;16.47;;
211;SDS011;16228;48.800;9.002;2023-03-01T10:22:44;18.10;;;14.60;;
211;SDS011;16228;48.800;9.002;2023-03-01T10:25:20;15.30;;;13.70;;
211;SDS011;16228;48.800;9.002;2023-03-01T10:27:59;18.40;;;15.07;;
211;SDS011;16228;48.800;9.002;2023-03-01T10:30:32;19.07;;;15.47;;
211;SDS011;16228;48.800;9.002;2023-03-01T10:33:05;16.60;;;14.90;;
211;SDS011;16228;48.800;9.002;2023-03-01T10:35:42;17.80;;;15.73;;
211;SDS011;16228;48.800;9.002;2023-03-01T10:38:09;17.93;;;14.93;;
211;SDS011;16228;48.800;9.002;2023-03-01T10:40:49;17.77;;;14.80;;
211;SDS011;16228;48.800;9.002;2023-03-01T10:43:18;17.87;;;15.23;;
211;SDS011;16228;48.800;9.002;2023-03-01T10:45:46;17.00;;;15.40;;
211;SDS011;16228;48.800;9.002;2023-03-01T10:48:15;17.20;;;13.90;;
211;SDS011;16228;48.800;9.002;2023-03-01T10:50:45;17.57;;;15.13;;
211;SDS011;16228;48.800;9.002;2023-03-01T10:53:20;18.83;;;15.00;;
211;SDS011;16228;48.800;9.002;2023-03-01T10:55:58;16.17;;;14.30;;
211;SDS011;16228;48.800;9.002;2023-03-01T10:58:27;17.37;;;15.10;;
211;SDS011;16228;48.800;9.002;2023-03-01T11:00:56;17.10;;;15.30;;
211;SDS011;16228;48.800;9.002;2023-03-01T11:03:26;18.13;;;16.07;;
211;SDS011;16228;48.800;9.002;2023-03-01T11:05:56;18.50;;;15.33;;
211;SDS011;16228;48.800;9.002;2023-03-01T11:08:29;19.27;;;16.27;;
211;SDS011;16228;48.800;9.002;2023-03-01T11:11:06;18.40;;;16.17;;
211;SDS011;16228;48.800;9.002;2023-03-01T11:13:53;17.23;;;14.80;;
211;SDS011;16228;48.800;9.002;2023-03-01T11:16:23;17.50;;;15.10;;
211;SDS011;16228;48.800;9.002;2023-03-01T11:19:00;16.57;;;14.77;;
211;SDS011;16228;48.800;9.002;2023-03-01T11:21:40;18.20;;;15.90;;
211;SDS011;16228;48.800;9.002;2023-03-01T11:24:11;17.47;;;15.63;;
211;SDS011;16228;48.800;9.002;2023-03-01T11:26:40;17.57;;;15.20;;
211;SDS011;16228;48.800;9.002;2023-03-01T11:29:12;20.80;;;16.47;;
211;SDS011;16228;48.800;9.002;2023-03-01T11:31:47;16.60;;;14.90;;
211;SDS011;16228;48.800;9.002;2023-03-01T11:34:19;17.43;;;14.77;;
211;SDS011;16228;48.800;9.002;2023-03-01T11:36:53;16.63;;;14.83;;
211;SDS011;16228;48.800;9.002;2023-03-01T11:39:26;17.63;;;15.07;;
211;SDS011;16228;48.800;9.002;2023-03-01T11:42:00;15.47;;;13.83;;
211;SDS011;16228;48.800;9.002;2023-03-01T11:44:33;17.47;;;14.47;;
211;SDS011;16228;48.800;9.002;2023-03-01T11:47:15;15.40;;;13.80;;
211;SDS011;16228;48.800;9.002;2023-03-01T11:50:09;17.00;;;14.30;;
211;SDS011;16228;48.800;9.002;2023-03-01T11:52:50;17.60;;;12.83;;
211;SDS011;16228;48.800;9.002;2023-03-01T11:55:29;17.00;;;14.47;;
211;SDS011;16228;48.800;9.002;2023-03-01T12:01:08;15.07;;;13.43;;
211;SDS011;16228;48.800;9.002;2023-03-01T12:04:11;17.40;;;13.33;;
211;SDS011;16228;48.800;9.002;2023-03-01T12:07:03;16.70;;;13.57;;
211;SDS011;16228;48.800;9.002;2023-03-01T12:09:46;14.63;;;13.13;;
211;SDS011;16228;48.800;9.002;2023-03-01T12:12:26;16.23;;;13.37;;
211;SDS011;16228;48.800;9.002;2023-03-01T12:21:05;14.97;;;13.33;;
211;SDS011;16228;48.800;9.002;2023-03-01T12:23:55;15.33;;;13.13;;
211;SDS011;16228;48.800;9.002;2023-03-01T12:26:52;16.83;;;13.53;;
211;SDS011;16228;48.800;9.002;2023-03-01T12:29:29;15.53;;;13.83;;
211;SDS011;16228;48.800;9.002;2023-03-01T12:32:04;17.93;;;14.27;;
211;SDS011;16228;48.800;9.002;2023-03-01T12:35:02;15.70;;;14.10;;
211;SDS011;16228;48.800;9.002;2023-03-01T12:37:42;15.57;;;13.97;;
211;SDS011;16228;48.800;9.002;2023-03-01T12:40:35;15.13;;;13.53;;
211;SDS011;16228;48.800;9.002;2023-03-01T12:43:21;17.57;;;14.03;;
211;SDS011;16228;48.800;9.002;2023-03-01T12:46:01;16.03;;;14.30;;
211;SDS011;16228;48.800;9.002;2023-03-01T12:48:40;16.57;;;14.23;;
211;SDS011;16228;48.800;9.002;2023-03-01T12:51:13;16.07;;;13.43;;
211;SDS011;16228;48.800;9.002;2023-03-01T12:53:43;15.83;;;13.93;;
211;SDS011;16228;48.800;9.002;2023-03-01T12:56:15;17.90;;;14.20;;
211;SDS011;16228;48.800;9.002;2023-03-01T12:58:46;15.27;;;13.67;;
211;SDS011;16228;48.800;9.002;2023-03-01T13:01:23;15.80;;;14.07;;
211;SDS011;16228;48.800;9.002;2023-03-01T13:04:03;15.43;;;13.40;;
211;SDS011;16228;48.800;9.002;2023-03-01T13:06:53;13.97;;;12.47;;
211;SDS011;16228;48.800;9.002;2023-03-01T13:09:30;15.77;;;13.43;;
211;SDS011;16228;48.800;9.002;2023-03-01T13:12:14;14.70;;;13.17;;
211;SDS011;16228;48.800;9.002;2023-03-01T13:15:24;14.83;;;13.23;;
211;SDS011;16228;48.800;9.002;2023-03-01T13:17:53;16.23;;;13.10;;
211;SDS011;16228;48.800;9.002;2023-03-01T13:20:23;14.63;;;13.13;;
211;SDS011;16228;48.800;9.002;2023-03-01T13:23:00;18.07;;;15.03;;
211;SDS011;16228;48.800;9.002;2023-03-01T13:25:29;17.77;;;14.00;;
211;SDS011;16228;48.800;9.002;2023-03-01T13:30:58;19.60;;;14.53;;
211;SDS011;16228;48.800;9.002;2023-03-01T13:33:44;17.10;;;13.30;;
211;SDS011;16228;48.800;9.002;2023-03-01T13:39:29;15.73;;;13.77;;
211;SDS011;16228;48.800;9.002;2023-03-01T13:41:59;15.67;;;14.07;;
211;SDS011;16228;48.800;9.002;2023-03-01T13:44:28;18.03;;;15.10;;
211;SDS011;16228;48.800;9.002;2023-03-01T13:47:06;17.67;;;14.73;;
211;SDS011;16228;48.800;9.002;2023-03-01T13:49:43;15.33;;;13.73;;
211;SDS011;16228;48.800;9.002;2023-03-01T13:55:10;17.50;;;15.07;;
211;SDS011;16228;48.800;9.002;2023-03-01T13:57:44;18.70;;;14.80;;
211;SDS011;16228;48.800;9.002;2023-03-01T14:00:25;16.77;;;15.03;;
211;SDS011;16228;48.800;9.002;2023-03-01T14:03:09;18.00;;;14.73;;
211;SDS011;16228;48.800;9.002;2023-03-01T14:05:39;19.43;;;15.03;;
211;SDS011;16228;48.800;9.002;2023-03-01T14:08:19;16.27;;;14.53;;
211;SDS011;16228;48.800;9.002;2023-03-01T14:10:52;18.60;;;16.33;;
211;SDS011;16228;48.800;9.002;2023-03-01T14:13:29;18.27;;;14.93;;
211;SDS011;16228;48.800;9.002;2023-03-01T14:16:08;17.93;;;14.80;;
211;SDS011;16228;48.800;9.002;2023-03-01T14:18:46;16.67;;;13.93;;
211;SDS011;16228;48.800;9.002;2023-03-01T14:21:20;16.67;;;14.80;;
211;SDS011;16228;48.800;9.002;2023-03-01T14:23:47;17.07;;;15.20;;
211;SDS011;16228;48.800;9.002;2023-03-01T14:26:19;17.30;;;14.70;;
211;SDS011;16228;48.800;9.002;2023-03-01T14:28:48;17.97;;;14.50;;
211;SDS011;16228;48.800;9.002;2023-03-01T14:31:30;15.03;;;13.53;;
211;SDS011;16228;48.800;9.002;2023-03-01T14:34:02;17.70;;;14.60;;
211;SDS011;16228;48.800;9.002;2023-03-01T14:36:30;19.97;;;15.50;;
211;SDS011;16228;48.800;9.002;2023-03-01T14:38:59;17.00;;;14.30;;
211;SDS011;16228;48.800;9.002;2023-03-01T14:41:30;19.30;;;14.77;;
211;SDS011;16228;48.800;9.002;2023-03-01T14:44:01;26.77;;;15.17;;
211;SDS011;16228;48.800;9.002;2023-03-01T14:46:32;20.03;;;14.73;;
211;SDS011;16228;48.800;9.002;2023-03-01T14:49:03;20.07;;;15.33;;
211;SDS011;16228;48.800;9.002;2023-03-01T14:51:36;20.63;;;15.40;;
211;SDS011;16228;48.800;9.002;2023-03-01T14:54:10;22.50;;;14.90;;
211;SDS011;16228;48.800;9.002;2023-03-01T14:56:47;19.80;;;15.43;;
211;SDS011;16228;48.800;9.002;2023-03-01T14:59:14;21.10;;;14.53;;
211;SDS011;16228;48.800;9.002;2023-03-01T15:01:42;18.17;;;15.67;;
211;SDS011;16228;48.800;9.002;2023-03-01T15:04:12;19.90;;;14.73;;
211;SDS011;16228;48.800;9.002;2023-03-01T15:06:40;17.80;;;15.23;;
211;SDS011;16228;48.800;9.002;2023-03-01T15:09:11;18.47;;;15.57;;
211;SDS011;16228;48.800;9.002;2023-03-01T15:11:41;17.33;;;14.43;;
211;SDS011;16228;48.800;9.002;2023-03-01T15:14:26;20.87;;;14.77;;
211;SDS011;16228;48.800;9.002;2023-03-01T15:16:54;18.63;;;14.80;;
211;SDS011;16228;48.800;9.002;2023-03-01T15:19:24;19.53;;;15.93;;
211;SDS011;16228;48.800;9.002;2023-03-01T15:21:54;19.57;;;14.93;;
211;SDS011;16228;48.800;9.002;2023-03-01T15:24:24;20.13;;;15.30;;
211;SDS011;16228;48.800;9.002;2023-03-01T15:26:55;17.83;;;13.87;;
211;SDS011;16228;48.800;9.002;2023-03-01T15:29:27;20.53;;;15.23;;